Time;durP1;ratioP1;P1;durP2;ratioP2;P2;SDS_P1;SDS_P2;PMS_P1;PMS_P2;Temp;Humidity;BMP_temperature;BMP_pressure;BME280_temperature;BME280_humidity;BME280_pressure;Samples;Min_cycle;Max_cycle;Signal;HPM_P1;HPM_P2
2023/05/09 00:00:09;;;;;;;3.25;1.92;;;;;;;13.86;48.71;102223.34;5040925;28;20036;-72
2023/05/09 00:02:36;;;;;;;4.53;1.90;;;;;;;13.78;48.60;102210.75;5058075;28;20044;-72
2023/05/09 00:05:03;;;;;;;3.70;2.08;;;;;;;13.77;48.72;102210.91;5058810;28;20342;-71
2023/05/09 00:07:30;;;;;;;7.68;2.40;;;;;;;13.73;48.56;102212.31;5059072;28;20029;-71
2023/05/09 00:09:55;;;;;;;5.00;2.22;;;;;;;13.81;48.16;102213.09;5056807;28;20129;-71
2023/05/09 00:12:21;;;;;;;5.75;1.95;;;;;;;13.85;47.98;102208.97;5041035;28;20075;-71
2023/05/09 00:14:50;;;;;;;2.35;1.80;;;;;;;13.82;48.20;102212.06;5055362;28;20425;-72
2023/05/09 00:17:17;;;;;;;9.45;2.42;;;;;;;13.77;47.74;102209.06;5055666;28;20029;-71
2023/05/09 00:19:43;;;;;;;6.28;2.08;;;;;;;13.75;47.91;102202.16;5036550;28;20091;-72
2023/05/09 00:22:11;;;;;;;6.93;1.98;;;;;;;13.79;47.64;102201.59;5055426;28;20048;-71
2023/05/09 00:24:37;;;;;;;6.88;2.22;;;;;;;13.80;47.52;102194.31;5058277;28;20482;-71
2023/05/09 00:27:02;;;;;;;4.47;1.98;;;;;;;13.85;47.27;102205.44;5057679;28;20086;-71
2023/05/09 00:29:28;;;;;;;5.57;1.85;;;;;;;13.64;47.40;102181.81;5057201;28;20029;-71
2023/05/09 00:31:53;;;;;;;8.05;2.50;;;;;;;13.73;47.02;102191.50;5056479;28;20036;-71
2023/05/09 00:34:19;;;;;;;3.65;2.20;;;;;;;13.76;47.06;102196.56;5057135;28;20029;-71
2023/05/09 00:36:44;;;;;;;5.50;2.13;;;;;;;13.76;46.92;102177.63;5041498;28;20035;-71
2023/05/09 00:39:10;;;;;;;3.60;2.00;;;;;;;13.81;46.89;102194.16;5041321;28;20096;-71
2023/05/09 00:41:35;;;;;;;3.03;1.95;;;;;;;13.85;46.69;102195.44;5059526;28;20024;-72
2023/05/09 00:44:01;;;;;;;5.80;1.90;;;;;;;13.79;46.50;102192.66;5058801;28;20036;-70
2023/05/09 00:46:26;;;;;;;4.72;1.85;;;;;;;13.81;46.31;102183.31;5056242;28;20057;-71
2023/05/09 00:48:52;;;;;;;3.38;2.05;;;;;;;13.75;46.43;102186.78;5039645;28;20025;-72
2023/05/09 00:51:17;;;;;;;2.90;2.15;;;;;;;13.77;46.11;102184.69;5056328;28;20039;-72
2023/05/09 00:53:44;;;;;;;4.72;2.25;;;;;;;13.80;46.21;102191.63;5056391;28;20056;-72
2023/05/09 00:56:11;;;;;;;3.50;2.17;;;;;;;13.73;46.02;102185.28;5057851;28;20029;-71
2023/05/09 00:58:37;;;;;;;4.68;1.90;;;;;;;13.74;45.81;102179.69;5039798;28;20021;-72
2023/05/09 01:01:03;;;;;;;3.85;1.90;;;;;;;13.73;45.84;102186.09;5056351;28;20448;-71
2023/05/09 01:03:30;;;;;;;2.97;1.80;;;;;;;13.60;45.76;102161.56;5039762;28;20039;-71
2023/05/09 01:06:23;;;;;;;4.35;2.00;;;;;;;13.72;45.75;102181.72;5055755;28;20021;-71
2023/05/09 01:09:02;;;;;;;6.00;2.15;;;;;;;13.74;45.21;102185.09;5057354;28;20032;-71
2023/05/09 01:11:47;;;;;;;4.95;1.90;;;;;;;13.68;45.32;102179.59;5061027;28;20084;-71
2023/05/09 01:14:27;;;;;;;16.63;1.90;;;;;;;13.66;45.11;102177.06;5064338;28;20048;-72
2023/05/09 01:17:02;;;;;;;1.80;1.50;;;;;;;13.60;45.04;102158.88;5059066;28;20040;-71
2023/05/09 01:19:37;;;;;;;3.83;1.98;;;;;;;13.62;44.79;102162.25;5055815;28;20082;-72
2023/05/09 01:22:07;;;;;;;4.05;1.98;;;;;;;13.62;44.93;102168.47;5055415;28;20059;-71
2023/05/09 01:24:44;;;;;;;3.80;1.90;;;;;;;13.63;44.62;102161.19;5055487;28;20236;-72
2023/05/09 01:27:19;;;;;;;2.53;1.88;;;;;;;13.50;44.53;102159.13;5056906;28;20053;-71
2023/05/09 01:29:46;;;;;;;4.72;2.05;;;;;;;13.71;44.62;102160.25;5060130;28;20029;-71
2023/05/09 01:32:18;;;;;;;2.80;1.75;;;;;;;13.72;44.15;102161.97;5054509;28;20044;-71
2023/05/09 01:34:44;;;;;;;5.18;2.90;;;;;;;13.73;44.27;102137.41;5058854;28;20040;-71
2023/05/09 01:37:13;;;;;;;3.45;1.80;;;;;;;13.80;44.17;102153.75;5061856;28;20082;-71
2023/05/09 01:39:40;;;;;;;7.68;2.00;;;;;;;13.85;44.29;102135.91;5062454;28;20504;-71
2023/05/09 01:42:10;;;;;;;7.72;2.08;;;;;;;13.90;43.58;102142.63;5061190;28;20040;-71
2023/05/09 01:44:38;;;;;;;2.30;1.90;;;;;;;13.72;44.11;102115.97;5059079;28;20024;-71
2023/05/09 01:47:06;;;;;;;4.28;2.15;;;;;;;13.81;43.92;102134.63;5058861;28;20025;-71
2023/05/09 01:49:35;;;;;;;5.72;1.90;;;;;;;13.82;43.68;102128.19;5060136;28;20372;-71
2023/05/09 01:52:05;;;;;;;4.18;2.08;;;;;;;13.86;43.63;102131.34;5059556;28;20055;-71
2023/05/09 01:54:33;;;;;;;5.55;2.05;;;;;;;13.80;43.45;102129.38;5060414;28;20060;-71
2023/05/09 01:56:59;;;;;;;3.13;1.90;;;;;;;13.77;43.92;102114.38;5072763;28;20179;-72
2023/05/09 01:59:27;;;;;;;4.82;2.10;;;;;;;13.82;43.72;102124.63;5058615;28;20032;-71
2023/05/09 02:01:54;;;;;;;4.57;1.77;;;;;;;13.73;43.47;102118.47;5038529;28;20625;-71
2023/05/09 02:04:21;;;;;;;3.72;1.95;;;;;;;13.65;43.59;102088.84;5025816;28;20037;-71
2023/05/09 02:06:51;;;;;;;3.20;1.80;;;;;;;13.60;43.75;102115.59;5059164;28;20037;-71
2023/05/09 02:09:18;;;;;;;2.65;1.70;;;;;;;13.73;43.46;102113.06;5059969;28;20052;-71
2023/05/09 02:11:44;;;;;;;3.58;1.83;;;;;;;13.79;43.39;102114.19;5056811;28;20426;-71
2023/05/09 02:14:09;;;;;;;5.70;1.95;;;;;;;13.71;43.59;102116.97;5059345;28;20100;-71
2023/05/09 02:16:35;;;;;;;4.53;1.80;;;;;;;13.70;43.51;102104.50;5058322;28;20447;-71
2023/05/09 02:19:01;;;;;;;3.22;1.73;;;;;;;13.63;43.57;102116.06;5058586;28;20383;-71
2023/05/09 02:21:27;;;;;;;4.78;1.70;;;;;;;13.64;43.33;102108.78;5061746;28;20504;-71
2023/05/09 02:23:52;;;;;;;9.07;2.10;;;;;;;13.54;43.96;102110.94;5064545;28;20113;-72
2023/05/09 02:26:18;;;;;;;5.03;1.92;;;;;;;13.26;44.28;102087.25;5038221;28;20033;-71
2023/05/09 02:28:44;;;;;;;3.40;1.70;;;;;;;13.51;43.92;102101.34;5040613;28;20060;-71
2023/05/09 02:31:12;;;;;;;4.38;1.80;;;;;;;13.50;43.79;102099.66;5059810;28;20028;-71
2023/05/09 02:33:38;;;;;;;5.38;2.10;;;;;;;13.42;44.20;102099.75;5059328;28;20032;-71
2023/05/09 02:36:04;;;;;;;2.55;1.80;;;;;;;13.11;44.95;102105.28;5060638;28;20028;-72
2023/05/09 02:38:31;;;;;;;3.67;1.98;;;;;;;13.19;44.67;102104.38;5043645;28;20396;-71
2023/05/09 02:40:56;;;;;;;4.05;2.20;;;;;;;13.22;44.65;102090.50;5068595;28;20025;-72
2023/05/09 02:43:22;;;;;;;5.00;2.00;;;;;;;13.21;44.45;102097.75;5059762;28;20033;-71
2023/05/09 02:45:47;;;;;;;2.42;1.75;;;;;;;13.17;44.71;102094.56;5053575;28;20028;-71
2023/05/09 02:48:13;;;;;;;3.20;2.10;;;;;;;13.07;44.98;102085.06;5042175;28;20029;-71
2023/05/09 02:50:41;;;;;;;3.80;2.00;;;;;;;13.09;44.92;102081.16;5057730;28;20029;-71
2023/05/09 02:53:07;;;;;;;3.50;2.15;;;;;;;13.03;44.99;102076.47;5042652;28;20098;-72
2023/05/09 02:55:32;;;;;;;5.13;1.90;;;;;;;13.04;44.98;102082.72;5058545;28;20037;-71
2023/05/09 02:57:57;;;;;;;4.43;1.92;;;;;;;12.86;45.30;102075.78;5057620;28;20396;-72
2023/05/09 03:00:24;;;;;;;3.45;2.00;;;;;;;12.91;45.67;102077.94;5057149;28;20060;-71
2023/05/09 03:02:50;;;;;;;3.90;1.95;;;;;;;12.92;45.19;102076.94;5057481;28;20033;-71
2023/05/09 03:05:17;;;;;;;2.75;1.95;;;;;;;12.88;45.69;102076.47;5057856;28;20028;-71
2023/05/09 03:07:43;;;;;;;5.60;2.03;;;;;;;12.92;45.50;102071.53;5041553;28;20058;-71
2023/05/09 03:10:12;;;;;;;3.92;1.92;;;;;;;12.88;45.69;102065.66;5061329;28;20051;-71
2023/05/09 03:12:38;;;;;;;4.45;2.10;;;;;;;12.96;45.39;102064.72;5057783;28;20322;-71
2023/05/09 03:15:07;;;;;;;4.43;2.10;;;;;;;12.96;45.80;102064.72;5055276;28;20021;-71
2023/05/09 03:17:32;;;;;;;3.85;2.00;;;;;;;13.08;45.25;102057.03;5058571;28;20060;-70
2023/05/09 03:19:57;;;;;;;3.53;1.80;;;;;;;13.34;44.91;102062.84;5040680;28;20059;-71
2023/05/09 03:22:23;;;;;;;5.90;2.00;;;;;;;13.33;44.90;102055.75;5057490;28;20502;-71
2023/05/09 03:24:48;;;;;;;3.53;1.80;;;;;;;13.40;44.83;102053.13;5055691;28;20029;-71
2023/05/09 03:27:14;;;;;;;3.45;2.00;;;;;;;13.36;44.95;102051.84;5054917;28;20025;-71
2023/05/09 03:29:40;;;;;;;3.05;2.05;;;;;;;13.54;44.66;102049.59;5054430;28;20033;-71
2023/05/09 03:32:05;;;;;;;6.45;2.25;;;;;;;13.31;44.82;102016.41;5056776;28;20039;-70
2023/05/09 03:34:31;;;;;;;3.42;1.98;;;;;;;13.60;44.74;102053.38;5056772;28;20102;-71
2023/05/09 03:36:57;;;;;;;3.35;2.25;;;;;;;14.03;43.75;102046.19;5058802;28;20470;-71
2023/05/09 03:39:22;;;;;;;5.55;2.40;;;;;;;13.81;44.22;102015.59;5058955;28;20040;-71
2023/05/09 03:41:48;;;;;;;3.80;1.85;;;;;;;13.90;44.31;102034.41;5059709;28;20029;-72
2023/05/09 03:44:13;;;;;;;3.10;1.95;;;;;;;14.07;44.10;102035.81;5058275;28;20048;-71
2023/05/09 03:46:39;;;;;;;3.65;2.13;;;;;;;14.25;43.98;102038.94;5057615;28;20063;-71
2023/05/09 03:49:04;;;;;;;3.70;2.13;;;;;;;14.32;43.81;102029.00;5053396;28;20399;-71
2023/05/09 03:51:31;;;;;;;4.28;2.10;;;;;;;14.33;43.47;102014.44;5057146;28;20025;-71
2023/05/09 03:53:57;;;;;;;2.97;2.00;;;;;;;14.74;43.08;102031.91;5058578;28;20021;-72
2023/05/09 03:56:22;;;;;;;5.50;2.22;;;;;;;14.97;42.26;102028.94;5054214;28;20548;-71
2023/05/09 03:58:48;;;;;;;4.53;2.33;;;;;;;15.14;42.36;102040.31;5057647;28;20060;-72
2023/05/09 04:01:14;;;;;;;4.10;2.20;;;;;;;15.69;41.33;102033.09;5062393;28;20037;-71
2023/05/09 04:03:40;;;;;;;4.35;2.15;;;;;;;16.11;40.40;102026.53;5060786;28;20032;-73
2023/05/09 04:06:05;;;;;;;3.22;2.00;;;;;;;16.10;40.43;102022.16;5058330;28;20092;-72
2023/05/09 04:08:31;;;;;;;5.50;2.17;;;;;;;15.93;40.79;102015.44;5063360;28;20147;-72
2023/05/09 04:10:57;;;;;;;8.63;2.08;;;;;;;15.38;42.13;102018.13;5046294;28;20024;-72
2023/05/09 04:13:22;;;;;;;3.55;2.03;;;;;;;14.89;42.69;102018.25;5060709;28;20029;-73
2023/05/09 04:15:48;;;;;;;5.38;2.20;;;;;;;14.84;43.12;102023.44;5059901;28;20044;-75
2023/05/09 04:18:13;;;;;;;4.07;1.98;;;;;;;14.67;43.23;102017.44;5042488;28;20043;-71
2023/05/09 04:20:39;;;;;;;5.57;2.40;;;;;;;14.58;43.44;102011.34;5055894;28;20083;-73
2023/05/09 04:23:04;;;;;;;7.35;2.10;;;;;;;14.53;43.63;101994.84;5055249;28;20033;-72
2023/05/09 04:25:30;;;;;;;5.03;2.28;;;;;;;14.53;43.95;101997.56;5053084;28;20063;-72
2023/05/09 04:27:56;;;;;;;4.47;2.05;;;;;;;14.62;43.80;102001.78;5055940;28;20025;-72
2023/05/09 04:30:22;;;;;;;3.05;2.10;;;;;;;14.68;43.86;101994.75;5055806;28;20040;-72
2023/05/09 04:32:48;;;;;;;5.80;2.10;;;;;;;14.57;43.87;102001.56;5040286;28;20404;-74
2023/05/09 04:35:14;;;;;;;5.30;2.42;;;;;;;14.56;44.06;101978.19;5055726;28;20032;-73
2023/05/09 04:37:40;;;;;;;5.40;2.22;;;;;;;14.77;44.13;102001.72;5056307;28;20476;-72
2023/05/09 04:40:08;;;;;;;4.60;2.10;;;;;;;14.63;43.91;101986.38;5055993;28;20029;-72
2023/05/09 04:42:34;;;;;;;3.97;2.30;;;;;;;14.68;44.09;102005.59;5054520;28;20233;-71
2023/05/09 04:45:00;;;;;;;6.57;2.70;;;;;;;14.65;44.34;101993.28;5054343;28;20025;-72
2023/05/09 04:47:26;;;;;;;2.95;2.00;;;;;;;14.78;43.89;101989.81;5054535;28;20028;-72
2023/05/09 04:49:52;;;;;;;4.50;2.45;;;;;;;14.94;43.86;102005.78;5055439;28;20047;-72
2023/05/09 04:52:17;;;;;;;5.75;2.10;;;;;;;14.93;44.15;102001.41;5052195;28;20017;-72
2023/05/09 04:54:43;;;;;;;4.75;2.42;;;;;;;14.90;44.28;102004.50;5038531;28;20052;-73
2023/05/09 04:57:08;;;;;;;5.32;2.45;;;;;;;14.62;44.56;101974.72;5047762;28;20067;-72
2023/05/09 04:59:34;;;;;;;2.78;2.13;;;;;;;14.86;44.11;101997.78;5059481;28;20033;-72
2023/05/09 05:02:00;;;;;;;4.53;2.17;;;;;;;14.90;44.29;102004.50;5039615;28;20442;-72
2023/05/09 05:04:26;;;;;;;6.65;2.65;;;;;;;14.98;44.26;102006.22;5041374;28;20021;-72
2023/05/09 05:06:52;;;;;;;5.95;2.30;;;;;;;14.82;44.46;102001.94;5042971;28;20024;-72
2023/05/09 05:09:18;;;;;;;5.43;2.45;;;;;;;14.73;44.96;102003.13;5059024;28;20407;-72
2023/05/09 05:11:43;;;;;;;7.85;2.40;;;;;;;14.80;44.96;101976.91;5043002;28;20483;-72
2023/05/09 05:14:08;;;;;;;5.53;2.80;;;;;;;15.07;44.77;101993.34;5059191;28;20029;-72
2023/05/09 05:16:34;;;;;;;8.65;2.50;;;;;;;15.06;44.85;101981.66;5062150;28;20051;-72
2023/05/09 05:18:59;;;;;;;3.75;2.50;;;;;;;15.34;44.73;101983.47;5060578;28;20021;-73
2023/05/09 05:21:25;;;;;;;5.82;2.15;;;;;;;15.45;44.46;101974.75;5028377;28;20056;-72
2023/05/09 05:23:50;;;;;;;6.78;2.63;;;;;;;15.37;44.62;101964.09;5060541;28;20029;-72
2023/05/09 05:26:16;;;;;;;5.28;2.35;;;;;;;15.40;44.68;101963.69;5041435;28;20041;-72
2023/05/09 05:28:41;;;;;;;7.78;2.42;;;;;;;15.65;44.50;101975.66;5043518;28;20044;-72
2023/05/09 05:31:06;;;;;;;5.00;2.20;;;;;;;15.68;44.14;101969.00;5043181;28;20037;-71
2023/05/09 05:33:32;;;;;;;9.68;2.60;;;;;;;15.80;44.35;101970.09;5042770;28;20085;-71
2023/05/09 05:35:57;;;;;;;6.47;2.70;;;;;;;15.87;44.61;101973.66;5060838;28;20029;-71
2023/05/09 05:38:23;;;;;;;6.30;3.08;;;;;;;15.71;44.92;101965.91;5058879;28;20120;-71
2023/05/09 05:40:48;;;;;;;5.82;2.50;;;;;;;15.91;44.45;101960.50;5060673;28;20033;-71
2023/05/09 05:43:14;;;;;;;5.93;2.88;;;;;;;15.90;44.49;101943.41;5060638;28;20029;-71
2023/05/09 05:45:39;;;;;;;4.28;2.33;;;;;;;16.08;44.41;101948.19;5042232;28;20101;-71
2023/05/09 05:48:05;;;;;;;4.10;2.60;;;;;;;16.20;44.49;101962.84;5058197;28;20063;-71
2023/05/09 05:50:30;;;;;;;6.63;2.35;;;;;;;16.33;44.25;101948.44;5058246;28;20056;-71
2023/05/09 05:52:56;;;;;;;6.57;3.08;;;;;;;16.42;43.92;101940.88;5058748;28;20033;-71
2023/05/09 05:55:21;;;;;;;5.55;2.47;;;;;;;16.69;43.69;101947.16;5041902;28;20017;-71
2023/05/09 05:57:47;;;;;;;5.88;2.42;;;;;;;16.64;43.81;101946.94;5058573;28;20083;-71
2023/05/09 06:00:13;;;;;;;5.97;2.40;;;;;;;16.94;43.92;101943.75;5059216;28;20112;-71
2023/05/09 06:02:43;;;;;;;6.30;2.53;;;;;;;17.28;43.50;101953.47;5059555;28;20511;-71
2023/05/09 06:05:09;;;;;;;6.07;2.80;;;;;;;17.63;42.64;101948.50;5059775;28;20024;-74
2023/05/09 06:07:35;;;;;;;8.30;2.67;;;;;;;17.47;43.03;101951.72;5060646;28;20049;-70
2023/05/09 06:10:00;;;;;;;7.68;2.80;;;;;;;17.45;42.92;101954.66;5056616;28;20044;-71
2023/05/09 06:12:25;;;;;;;6.43;2.67;;;;;;;17.24;43.06;101917.72;5039470;28;20518;-72
2023/05/09 06:14:51;;;;;;;6.35;3.03;;;;;;;17.29;42.97;101947.81;5040094;28;20488;-72
2023/05/09 06:17:17;;;;;;;5.97;2.80;;;;;;;17.41;42.78;101955.31;5040130;28;20108;-72
2023/05/09 06:19:42;;;;;;;6.25;2.75;;;;;;;17.51;42.85;101931.19;5057266;28;20033;-71
2023/05/09 06:22:08;;;;;;;8.88;2.95;;;;;;;17.46;42.99;101920.13;5056540;28;20061;-72
2023/05/09 06:24:33;;;;;;;11.35;3.17;;;;;;;17.58;42.83;101910.19;5039484;28;20037;-72
2023/05/09 06:26:58;;;;;;;9.43;3.17;;;;;;;17.89;42.51;101927.63;5039593;28;20029;-72
2023/05/09 06:29:24;;;;;;;5.63;2.70;;;;;;;17.87;42.70;101924.28;5058995;28;20102;-71
2023/05/09 06:31:49;;;;;;;7.15;2.90;;;;;;;17.94;42.27;101925.06;5057847;28;20032;-72
2023/05/09 06:34:15;;;;;;;8.95;3.20;;;;;;;17.97;42.40;101925.47;5040699;28;20039;-72
2023/05/09 06:36:40;;;;;;;6.55;2.85;;;;;;;18.05;42.18;101910.75;5057419;28;20029;-72
2023/05/09 06:39:06;;;;;;;6.75;2.70;;;;;;;18.29;41.98;101912.63;5057383;28;20033;-72
2023/05/09 06:41:31;;;;;;;6.18;2.85;;;;;;;18.47;41.88;101925.44;5057403;28;20033;-71
2023/05/09 06:43:57;;;;;;;5.38;2.50;;;;;;;18.36;41.85;101912.56;5058229;28;20061;-71
2023/05/09 06:46:23;;;;;;;5.93;3.05;;;;;;;18.52;41.65;101917.44;5058936;28;20047;-71
2023/05/09 06:48:48;;;;;;;5.97;2.72;;;;;;;18.68;41.08;101916.03;5040942;28;20079;-72
2023/05/09 06:51:13;;;;;;;10.32;2.90;;;;;;;18.87;41.08;101916.06;5059290;28;20094;-72
2023/05/09 06:53:39;;;;;;;5.13;2.67;;;;;;;18.85;40.98;101899.94;5058160;28;20120;-72
2023/05/09 06:56:05;;;;;;;3.90;2.60;;;;;;;19.03;40.57;101901.81;5041266;28;20033;-72
2023/05/09 06:58:30;;;;;;;4.63;2.97;;;;;;;18.96;40.77;101899.16;5041016;28;20021;-72
2023/05/09 07:00:56;;;;;;;7.70;2.80;;;;;;;18.88;40.66;101899.47;5059676;28;20021;-72
2023/05/09 07:03:21;;;;;;;8.60;2.80;;;;;;;18.99;40.59;101878.78;5062324;28;20039;-72
2023/05/09 07:05:47;;;;;;;6.82;3.15;;;;;;;18.87;40.57;101875.16;5057435;28;20478;-72
2023/05/09 07:08:12;;;;;;;9.15;3.10;;;;;;;18.68;40.77;101872.41;5056154;28;20029;-72
2023/05/09 07:10:38;;;;;;;3.53;2.42;;;;;;;18.74;40.58;101862.50;5039288;28;20534;-72
2023/05/09 07:13:04;;;;;;;6.13;3.13;;;;;;;18.65;40.93;101861.97;5055227;28;20059;-72
2023/05/09 07:15:29;;;;;;;6.32;2.58;;;;;;;18.86;40.58;101878.94;5057104;28;20024;-72
2023/05/09 07:17:55;;;;;;;3.95;2.50;;;;;;;18.95;40.88;101885.78;5040583;28;20128;-72
2023/05/09 07:20:20;;;;;;;4.93;2.58;;;;;;;18.87;41.05;101886.88;5022436;28;20036;-72
2023/05/09 07:22:45;;;;;;;5.72;2.70;;;;;;;18.78;41.33;101888.28;5053944;28;20037;-72
2023/05/09 07:25:11;;;;;;;5.75;3.10;;;;;;;18.91;41.12;101884.56;5057680;28;20037;-72
2023/05/09 07:27:36;;;;;;;7.32;2.95;;;;;;;18.84;41.20;101854.66;5055816;28;20167;-72
2023/05/09 07:30:03;;;;;;;11.43;3.40;;;;;;;18.61;41.40;101865.34;5039681;28;20029;-72
2023/05/09 07:32:29;;;;;;;7.30;2.90;;;;;;;18.91;41.42;101876.38;5056885;28;20116;-72
2023/05/09 07:34:54;;;;;;;5.45;3.30;;;;;;;19.07;41.04;101877.63;5056228;28;20492;-72
2023/05/09 07:37:20;;;;;;;9.35;3.20;;;;;;;19.18;41.08;101863.22;5056159;28;20040;-71
2023/05/09 07:39:48;;;;;;;5.90;3.03;;;;;;;19.08;40.88;101869.22;5056800;28;20037;-72
2023/05/09 07:42:13;;;;;;;6.53;3.10;;;;;;;19.15;40.84;101861.78;5056916;28;20118;-71
2023/05/09 07:44:39;;;;;;;7.40;3.38;;;;;;;19.20;40.62;101842.84;5058910;28;20029;-71
2023/05/09 07:47:04;;;;;;;7.68;3.30;;;;;;;19.26;40.69;101843.78;5043862;28;20044;-71
2023/05/09 07:49:31;;;;;;;5.75;3.00;;;;;;;19.28;40.62;101841.69;5061097;28;20092;-72
2023/05/09 07:51:56;;;;;;;5.38;2.75;;;;;;;19.12;41.04;101845.88;5043307;28;20120;-71
2023/05/09 07:54:22;;;;;;;9.23;3.10;;;;;;;19.24;40.64;101852.22;5056984;28;20049;-72
2023/05/09 07:56:47;;;;;;;4.20;2.92;;;;;;;19.25;40.69;101842.97;5058617;28;20028;-72
2023/05/09 07:59:13;;;;;;;10.68;3.20;;;;;;;19.38;40.60;101854.75;5056672;28;20123;-71
2023/05/09 08:01:38;;;;;;;7.00;3.10;;;;;;;19.32;40.78;101851.06;5040175;28;20194;-71
2023/05/09 08:04:05;;;;;;;11.45;3.20;;;;;;;19.31;40.76;101854.84;5038639;28;20511;-72
2023/05/09 08:06:31;;;;;;;6.72;2.80;;;;;;;19.41;40.29;101843.38;5056030;28;20025;-72
2023/05/09 08:08:57;;;;;;;8.48;2.85;;;;;;;19.38;40.97;101844.69;5055595;28;20079;-72
2023/05/09 08:11:22;;;;;;;7.13;2.78;;;;;;;19.53;40.50;101835.22;5056583;28;20342;-72
2023/05/09 08:13:48;;;;;;;10.32;3.45;;;;;;;19.52;40.26;101834.38;5056897;28;20067;-71
2023/05/09 08:16:16;;;;;;;7.68;3.03;;;;;;;19.60;39.95;101834.06;5058811;28;20064;-71
2023/05/09 08:18:41;;;;;;;7.90;3.00;;;;;;;19.40;40.55;101819.88;5056583;28;20017;-71
2023/05/09 08:21:06;;;;;;;5.47;2.63;;;;;;;19.65;40.63;101828.75;5057392;28;20059;-72
2023/05/09 08:23:32;;;;;;;6.57;2.60;;;;;;;19.49;40.46;101797.47;5056278;28;20075;-72
2023/05/09 08:25:57;;;;;;;4.43;2.53;;;;;;;19.96;39.86;101829.47;5040445;28;20029;-72
2023/05/09 08:28:23;;;;;;;7.82;2.97;;;;;;;20.13;39.73;101829.59;5043260;28;20100;-72
2023/05/09 08:30:50;;;;;;;8.10;2.60;;;;;;;20.13;39.72;101824.13;5044929;28;20043;-72
2023/05/09 08:33:16;;;;;;;6.38;2.80;;;;;;;20.17;39.19;101815.25;5060574;28;20144;-72
2023/05/09 08:35:41;;;;;;;5.65;2.72;;;;;;;20.04;39.72;101814.66;5062436;28;20025;-72
2023/05/09 08:38:07;;;;;;;6.95;2.75;;;;;;;20.07;39.54;101825.94;5058038;28;20033;-71
2023/05/09 08:40:36;;;;;;;6.95;3.00;;;;;;;19.98;38.85;101793.75;5038362;28;20059;-72
2023/05/09 08:43:04;;;;;;;11.05;2.97;;;;;;;20.02;39.08;101816.78;5055888;28;20025;-73
2023/05/09 08:45:38;;;;;;;4.05;2.53;;;;;;;19.98;38.78;101810.97;5059469;28;20112;-72
2023/05/09 08:48:05;;;;;;;10.55;2.85;;;;;;;20.00;38.70;101818.91;5059644;28;20051;-72
2023/05/09 08:50:31;;;;;;;6.10;2.60;;;;;;;19.85;38.85;101795.63;5060361;28;20036;-72
2023/05/09 08:52:57;;;;;;;11.68;2.60;;;;;;;19.95;38.81;101811.44;5062145;28;20024;-72
2023/05/09 08:55:23;;;;;;;8.10;2.40;;;;;;;19.90;38.55;101827.69;5059760;28;20143;-71
2023/05/09 08:57:49;;;;;;;5.32;2.88;;;;;;;20.01;38.50;101824.16;5057146;28;20033;-72
2023/05/09 09:00:16;;;;;;;6.38;2.78;;;;;;;19.96;38.40;101807.63;5056560;28;20099;-72
2023/05/09 09:02:42;;;;;;;6.53;2.83;;;;;;;20.06;37.91;101820.69;5056302;28;20032;-72
2023/05/09 09:05:08;;;;;;;4.72;2.30;;;;;;;19.91;37.75;101815.72;5055670;28;20434;-71
2023/05/09 09:07:35;;;;;;;6.90;2.55;;;;;;;19.83;38.01;101808.69;5059229;28;20035;-72
2023/05/09 09:10:03;;;;;;;7.13;2.35;;;;;;;19.95;37.92;101815.00;5062601;28;20017;-71
2023/05/09 09:12:30;;;;;;;6.75;2.47;;;;;;;19.97;37.18;101816.66;5062525;28;20036;-72
2023/05/09 09:14:58;;;;;;;10.57;2.13;;;;;;;20.03;37.02;101800.16;5046855;28;20033;-72
2023/05/09 09:17:28;;;;;;;3.70;1.80;;;;;;;20.13;37.18;101799.53;5056967;28;20033;-72
2023/05/09 09:20:04;;;;;;;7.38;2.10;;;;;;;20.35;37.09;101805.25;5057195;28;20025;-72
2023/05/09 09:22:33;;;;;;;8.85;2.30;;;;;;;20.18;37.12;101786.84;5055372;28;20419;-72
2023/05/09 09:25:00;;;;;;;11.10;2.45;;;;;;;20.19;37.17;101812.25;5040364;28;20029;-72
2023/05/09 09:27:26;;;;;;;8.15;2.47;;;;;;;20.12;37.11;101792.44;5062088;28;20051;-72
2023/05/09 09:29:51;;;;;;;8.38;2.40;;;;;;;20.24;37.00;101803.38;5061610;28;20392;-72
2023/05/09 09:32:18;;;;;;;8.13;2.20;;;;;;;20.31;36.52;101785.75;5062813;28;20033;-72
2023/05/09 09:34:48;;;;;;;12.68;2.60;;;;;;;20.27;36.27;101790.03;5063484;28;20499;-72
2023/05/09 09:37:22;;;;;;;5.35;1.90;;;;;;;20.42;35.92;101801.28;5060553;28;20032;-72
2023/05/09 09:39:56;;;;;;;6.30;1.98;;;;;;;20.43;35.83;101780.28;5061068;28;20036;-72
2023/05/09 09:42:22;;;;;;;6.72;2.40;;;;;;;20.34;35.54;101776.25;5061001;28;20033;-72
2023/05/09 09:45:12;;;;;;;10.27;2.15;;;;;;;20.46;35.59;101784.41;5061319;28;20377;-72
2023/05/09 09:47:39;;;;;;;6.57;2.28;;;;;;;20.37;35.71;101789.44;5058785;28;20036;-72
2023/05/09 09:50:10;;;;;;;5.72;1.75;;;;;;;20.39;35.80;101782.63;5059628;28;20024;-73
2023/05/09 09:52:36;;;;;;;11.65;2.08;;;;;;;20.51;35.62;101788.13;5061518;28;20112;-72
2023/05/09 09:55:02;;;;;;;7.63;2.00;;;;;;;20.73;35.16;101762.84;5063661;28;20049;-73
2023/05/09 09:57:36;;;;;;;4.57;2.35;;;;;;;21.00;34.97;101769.41;5053862;28;20451;-73
2023/05/09 10:00:03;;;;;;;3.92;1.90;;;;;;;21.02;34.68;101772.72;5067491;28;20060;-71
2023/05/09 10:02:29;;;;;;;5.28;1.92;;;;;;;20.86;34.03;101754.34;5064732;28;20108;-72
2023/05/09 10:04:54;;;;;;;8.43;2.28;;;;;;;21.15;34.36;101768.00;5049384;28;20096;-72
2023/05/09 10:07:24;;;;;;;10.13;2.00;;;;;;;21.03;34.63;101766.19;5045959;28;20031;-73
2023/05/09 10:09:50;;;;;;;6.75;2.20;;;;;;;20.98;34.63;101760.59;5063793;28;20071;-73
2023/05/09 10:12:18;;;;;;;8.45;2.10;;;;;;;20.68;34.48;101727.19;5066218;28;20032;-72
2023/05/09 10:14:46;;;;;;;12.85;2.33;;;;;;;21.15;35.01;101759.81;5069295;28;20028;-73
2023/05/09 10:17:13;;;;;;;5.40;2.25;;;;;;;21.14;34.96;101752.69;5066565;28;20036;-72
2023/05/09 10:19:44;;;;;;;10.27;2.13;;;;;;;21.22;35.06;101757.72;5065919;28;20029;-72
2023/05/09 10:22:13;;;;;;;5.28;2.20;;;;;;;21.27;34.94;101764.13;5065940;28;20053;-73
2023/05/09 10:24:57;;;;;;;5.82;2.42;;;;;;;21.20;35.59;101748.97;5062397;28;20135;-72
2023/05/09 10:27:25;;;;;;;;;;;;;;;21.37;35.51;101743.53;5065325;28;20018;-72
2023/05/09 10:30:06;;;;;;;10.50;2.45;;;;;;;21.27;36.00;101739.50;5066792;28;19987;-72
2023/05/09 10:32:52;;;;;;;13.18;2.40;;;;;;;21.39;35.69;101744.09;5067803;28;20063;-73
2023/05/09 10:35:21;;;;;;;7.78;2.25;;;;;;;21.32;35.77;101716.84;5062054;28;20024;-72
2023/05/09 10:37:47;;;;;;;6.25;2.40;;;;;;;21.62;35.52;101726.66;5062550;28;20052;-73
2023/05/09 10:40:14;;;;;;;7.70;2.20;;;;;;;21.71;35.67;101725.16;5067211;28;20029;-72
2023/05/09 10:42:43;;;;;;;7.57;2.25;;;;;;;21.63;35.88;101722.84;5051940;28;20068;-72
2023/05/09 10:45:31;;;;;;;5.28;2.10;;;;;;;21.78;35.80;101723.06;5065903;28;20025;-73
2023/05/09 10:48:00;;;;;;;7.00;2.15;;;;;;;21.81;35.32;101728.88;5035418;28;20044;-72
2023/05/09 10:50:26;;;;;;;4.90;1.95;;;;;;;21.68;35.11;101720.19;5042150;28;20037;-72
2023/05/09 10:53:07;;;;;;;10.10;2.40;;;;;;;21.75;35.14;101712.59;5012261;28;20037;-72
2023/05/09 10:55:52;;;;;;;6.78;2.00;;;;;;;21.82;34.69;101705.06;5008249;28;20039;-72
2023/05/09 10:58:21;;;;;;;5.68;2.00;;;;;;;21.88;34.26;101706.75;5040052;28;20033;-72
2023/05/09 11:00:48;;;;;;;7.75;2.10;;;;;;;21.73;34.21;101703.84;5042252;28;20034;-72
2023/05/09 11:03:13;;;;;;;7.10;2.25;;;;;;;21.76;34.43;101703.31;5047619;28;20072;-72
2023/05/09 11:05:39;;;;;;;4.18;1.88;;;;;;;21.74;34.03;101676.16;5031662;28;20088;-72
2023/05/09 11:08:28;;;;;;;6.88;1.70;;;;;;;21.74;34.03;101675.34;5031440;28;20076;-71
2023/05/09 11:10:55;;;;;;;4.57;2.05;;;;;;;21.90;34.29;101695.56;5039724;28;20105;-72
2023/05/09 11:13:23;;;;;;;5.47;1.90;;;;;;;21.84;33.94;101691.09;5028095;28;20061;-72
2023/05/09 11:16:00;;;;;;;9.77;2.17;;;;;;;21.92;34.40;101694.25;5048863;28;20044;-72
2023/05/09 11:18:31;;;;;;;13.95;2.45;;;;;;;21.86;33.44;101676.06;5040457;28;20029;-73
2023/05/09 11:20:57;;;;;;;12.80;2.47;;;;;;;21.88;33.37;101686.75;5069448;28;20045;-72
2023/05/09 11:23:29;;;;;;;8.13;2.15;;;;;;;22.04;32.90;101675.75;5068249;28;20024;-73